Time;durP1;ratioP1;P1;durP2;ratioP2;P2;SDS_P1;SDS_P2;PMS_P1;PMS_P2;Temp;Humidity;BMP_temperature;BMP_pressure;BME280_temperature;BME280_humidity;BME280_pressure;Samples;Min_cycle;Max_cycle;Signal;HPM_P1;HPM_P2
2022/08/18 00:00:15;;;;;;;102.47;68.20;;;21.20;99.90;;;;;;5054811;28;20495;-72
2022/08/18 00:02:42;;;;;;;101.88;66.07;;;21.20;99.90;;;;;;5054293;28;20043;-72
2022/08/18 00:05:09;;;;;;;92.13;62.00;;;21.20;99.90;;;;;;5054161;28;20028;-72
2022/08/18 00:07:36;;;;;;;98.00;65.97;;;21.10;99.90;;;;;;5053889;28;20031;-72
2022/08/18 00:10:03;;;;;;;105.03;68.35;;;21.20;99.90;;;;;;5045432;28;20033;-72
2022/08/18 00:12:36;;;;;;;96.88;64.60;;;21.30;99.90;;;;;;5053786;28;20441;-72
2022/08/18 00:15:03;;;;;;;105.30;62.47;;;21.30;99.90;;;;;;5036216;28;20025;-72
2022/08/18 00:17:30;;;;;;;102.40;66.03;;;21.30;99.90;;;;;;5053313;28;20040;-72
2022/08/18 00:19:56;;;;;;;95.18;66.57;;;21.30;99.90;;;;;;5055244;28;20025;-72
2022/08/18 00:22:22;;;;;;;103.60;67.82;;;21.40;99.90;;;;;;5062361;28;20032;-72
2022/08/18 00:24:51;;;;;;;95.43;62.78;;;21.40;99.90;;;;;;5073721;28;20032;-72
2022/08/18 00:27:21;;;;;;;100.85;69.45;;;21.40;99.90;;;;;;5073652;28;20042;-72
2022/08/18 00:29:47;;;;;;;96.93;63.85;;;21.40;99.90;;;;;;5068353;28;20025;-73
2022/08/18 00:32:16;;;;;;;98.45;67.05;;;21.40;99.90;;;;;;5045492;28;20511;-72
2022/08/18 00:34:42;;;;;;;93.20;61.30;;;21.40;99.90;;;;;;5062399;28;20365;-72
2022/08/18 00:37:07;;;;;;;91.90;61.38;;;21.50;99.90;;;;;;5064525;28;20017;-72
2022/08/18 00:39:33;;;;;;;85.53;59.60;;;21.50;99.90;;;;;;5066555;28;20119;-72
2022/08/18 00:42:11;;;;;;;92.82;59.67;;;21.50;99.90;;;;;;5073699;28;20033;-72
2022/08/18 00:44:36;;;;;;;84.63;58.70;;;21.50;99.90;;;;;;5053231;28;20024;-72
2022/08/18 00:47:02;;;;;;;80.40;58.05;;;21.50;99.90;;;;;;5053049;28;20033;-72
2022/08/18 00:49:28;;;;;;;87.13;59.60;;;21.50;99.90;;;;;;5053462;28;20017;-72
2022/08/18 00:51:55;;;;;;;82.15;56.60;;;21.50;99.90;;;;;;5053089;28;20047;-72
2022/08/18 00:54:25;;;;;;;85.95;61.33;;;21.60;99.90;;;;;;5053753;28;20025;-73
2022/08/18 00:56:55;;;;;;;75.93;54.63;;;21.60;99.90;;;;;;5053752;28;20025;-72
2022/08/18 00:59:32;;;;;;;78.03;55.53;;;21.60;99.90;;;;;;5053710;28;20147;-72
2022/08/18 01:02:02;;;;;;;74.85;56.05;;;21.60;99.90;;;;;;5053060;28;20033;-72
2022/08/18 01:04:57;;;;;;;64.18;48.45;;;21.60;99.90;;;;;;5035227;28;20057;-72
2022/08/18 01:07:31;;;;;;;72.90;54.85;;;21.50;99.90;;;;;;4981573;28;20054;-72
2022/08/18 01:10:00;;;;;;;73.85;54.90;;;21.50;99.90;;;;;;5053458;28;20025;-72
2022/08/18 01:12:26;;;;;;;68.15;51.20;;;21.50;99.90;;;;;;5053344;28;20037;-72
2022/08/18 01:14:53;;;;;;;68.30;49.97;;;21.50;99.90;;;;;;5053031;28;20121;-72
2022/08/18 01:23:15;;;;;;;67.97;51.63;;;21.50;99.90;;;;;;5051342;28;20500;-72
2022/08/18 01:25:59;;;;;;;70.72;49.63;;;21.50;99.90;;;;;;5053242;28;20036;-72
2022/08/18 01:28:33;;;;;;;69.07;49.08;;;21.50;99.90;;;;;;5051982;28;20032;-72
2022/08/18 01:31:01;;;;;;;74.20;50.55;;;21.50;99.90;;;;;;5052504;28;20029;-72
2022/08/18 01:33:35;;;;;;;72.63;51.13;;;21.50;99.90;;;;;;5050632;28;20029;-72
2022/08/18 01:36:13;;;;;;;77.38;51.97;;;21.60;99.90;;;;;;5052903;28;20016;-73
2022/08/18 01:38:39;;;;;;;70.40;50.40;;;21.60;99.90;;;;;;5052855;28;20017;-72
2022/08/18 01:41:06;;;;;;;73.00;50.97;;;21.60;99.90;;;;;;5053106;28;20288;-72
2022/08/18 01:43:34;;;;;;;76.60;53.35;;;21.60;99.90;;;;;;5052453;28;20075;-72
2022/08/18 01:46:02;;;;;;;72.70;50.58;;;21.60;99.90;;;;;;5052282;28;20409;-72
2022/08/18 01:48:32;;;;;;;71.80;51.20;;;21.60;99.90;;;;;;5052754;28;20039;-72
2022/08/18 01:51:03;;;;;;;72.38;49.05;;;21.60;99.90;;;;;;5051766;28;20538;-72
2022/08/18 01:53:29;;;;;;;70.38;49.03;;;21.60;99.90;;;;;;5052067;28;20025;-73
2022/08/18 01:55:55;;;;;;;72.07;48.17;;;21.60;99.90;;;;;;5052749;28;20499;-74
2022/08/18 01:58:26;;;;;;;69.00;48.63;;;21.60;99.90;;;;;;5052542;28;20021;-72
2022/08/18 02:00:57;;;;;;;68.03;48.10;;;21.60;99.90;;;;;;5052074;28;20397;-72
2022/08/18 02:03:27;;;;;;;68.05;47.75;;;21.60;99.90;;;;;;5052462;28;20047;-72
2022/08/18 02:05:58;;;;;;;68.72;47.85;;;21.50;99.90;;;;;;5052391;28;20029;-72
2022/08/18 02:08:24;;;;;;;65.82;48.15;;;21.50;99.90;;;;;;5052387;28;20063;-72
2022/08/18 02:10:50;;;;;;;71.95;48.55;;;21.50;99.90;;;;;;5052630;28;20442;-72
2022/08/18 02:13:17;;;;;;;77.63;49.75;;;21.50;99.90;;;;;;5034593;28;20119;-72
2022/08/18 02:15:43;;;;;;;69.05;48.60;;;21.50;99.90;;;;;;5051837;28;20409;-72
2022/08/18 02:18:16;;;;;;;70.07;52.40;;;21.40;99.90;;;;;;5052568;28;20384;-72
2022/08/18 02:20:42;;;;;;;75.13;50.30;;;21.40;99.90;;;;;;5051786;28;20041;-73
2022/08/18 02:23:10;;;;;;;70.22;47.22;;;21.40;99.90;;;;;;5052406;28;20388;-72
2022/08/18 02:25:36;;;;;;;63.38;47.00;;;21.40;99.90;;;;;;5051851;28;20075;-72
2022/08/18 02:28:02;;;;;;;70.22;52.28;;;21.40;99.90;;;;;;5052415;28;20358;-72
2022/08/18 02:30:28;;;;;;;78.47;54.08;;;21.40;99.90;;;;;;5033945;28;20072;-72
2022/08/18 02:32:56;;;;;;;76.30;55.35;;;21.40;99.90;;;;;;5051927;28;20469;-72
2022/08/18 02:35:22;;;;;;;73.05;47.72;;;21.40;99.90;;;;;;5055277;28;20025;-72
2022/08/18 02:37:47;;;;;;;80.57;52.13;;;21.40;99.90;;;;;;5055893;28;20074;-72
2022/08/18 02:40:14;;;;;;;75.53;51.58;;;21.40;99.90;;;;;;5055947;28;20473;-72
2022/08/18 02:42:40;;;;;;;80.63;53.10;;;21.40;99.90;;;;;;5056202;28;20112;-72
2022/08/18 02:45:07;;;;;;;67.13;46.28;;;21.40;99.90;;;;;;5055417;28;20486;-72
2022/08/18 02:47:33;;;;;;;73.47;51.35;;;21.50;99.90;;;;;;5056253;28;20052;-72
2022/08/18 02:49:59;;;;;;;75.90;51.75;;;21.50;99.90;;;;;;5056027;28;20033;-72
2022/08/18 02:52:31;;;;;;;75.97;53.15;;;21.50;99.90;;;;;;5055949;28;20024;-73
2022/08/18 02:55:00;;;;;;;81.47;56.35;;;21.50;99.90;;;;;;5055402;28;20025;-72
2022/08/18 02:57:27;;;;;;;78.60;53.72;;;21.50;99.90;;;;;;5038004;28;20147;-72
2022/08/18 02:59:53;;;;;;;75.00;52.95;;;21.40;99.90;;;;;;5055668;28;20021;-72
2022/08/18 03:02:19;;;;;;;77.55;56.42;;;21.40;99.90;;;;;;5055714;28;20108;-72
2022/08/18 03:04:45;;;;;;;79.20;56.58;;;21.40;99.90;;;;;;5054968;28;20506;-72
2022/08/18 03:07:13;;;;;;;76.80;53.10;;;21.50;99.90;;;;;;5055100;28;20035;-72
2022/08/18 03:09:40;;;;;;;82.40;55.08;;;21.50;99.90;;;;;;5055765;28;20404;-72
2022/08/18 03:12:07;;;;;;;79.57;55.58;;;21.50;99.90;;;;;;5055728;28;20029;-72
2022/08/18 03:14:34;;;;;;;81.07;57.33;;;21.50;99.90;;;;;;5055281;28;20103;-72
2022/08/18 03:17:07;;;;;;;87.68;57.72;;;21.50;99.90;;;;;;5055154;28;20489;-72
2022/08/18 03:19:32;;;;;;;;;;;21.50;99.90;;;;;;5056029;28;20029;-72
2022/08/18 03:21:58;;;;;;;83.47;57.53;;;21.50;99.90;;;;;;5055031;28;20265;-72
2022/08/18 03:24:26;;;;;;;87.15;60.33;;;21.50;99.90;;;;;;5055343;28;20484;-72
2022/08/18 03:26:54;;;;;;;93.07;62.67;;;21.50;99.90;;;;;;5054641;28;20021;-73
2022/08/18 03:29:21;;;;;;;96.10;64.85;;;21.50;99.90;;;;;;5055213;28;20025;-72
2022/08/18 03:31:47;;;;;;;86.30;61.20;;;21.40;99.90;;;;;;5054631;28;20116;-75
2022/08/18 03:34:14;;;;;;;94.80;63.97;;;21.40;99.90;;;;;;5055133;28;20029;-73
2022/08/18 03:36:40;;;;;;;90.60;62.10;;;21.50;99.90;;;;;;5054979;28;20013;-75
2022/08/18 03:39:11;;;;;;;94.03;62.22;;;21.50;99.90;;;;;;5055202;28;20037;-73
2022/08/18 03:41:40;;;;;;;95.20;62.20;;;21.40;99.90;;;;;;5054536;28;20065;-73
2022/08/18 03:44:06;;;;;;;91.68;60.67;;;21.40;99.90;;;;;;5036873;28;20476;-74
2022/08/18 03:46:32;;;;;;;95.22;60.72;;;21.40;99.90;;;;;;5054066;28;20032;-74
2022/08/18 03:48:59;;;;;;;92.57;64.50;;;21.50;99.90;;;;;;5054938;28;20029;-78
2022/08/18 03:51:27;;;;;;;89.80;60.47;;;21.50;99.90;;;;;;5054605;28;20464;-73
2022/08/18 03:53:55;;;;;;;95.68;65.00;;;21.50;99.90;;;;;;5055076;28;20362;-74
2022/08/18 03:56:23;;;;;;;97.75;63.95;;;21.40;99.90;;;;;;5036205;28;20128;-73
2022/08/18 03:58:53;;;;;;;88.60;60.70;;;21.50;99.90;;;;;;5036628;28;20028;-73
2022/08/18 04:01:22;;;;;;;90.53;60.35;;;21.50;99.90;;;;;;5054511;28;20033;-75
2022/08/18 04:03:52;;;;;;;89.40;59.15;;;21.50;99.90;;;;;;5054357;28;20078;-74
2022/08/18 04:06:26;;;;;;;88.13;58.65;;;21.50;99.90;;;;;;5054240;28;20029;-73
2022/08/18 04:08:55;;;;;;;93.72;62.63;;;21.50;99.90;;;;;;5054738;28;20396;-73
2022/08/18 04:11:22;;;;;;;87.97;58.80;;;21.50;99.90;;;;;;5054482;28;20449;-74
2022/08/18 04:13:47;;;;;;;87.30;57.95;;;21.50;99.90;;;;;;5052887;28;20075;-73
2022/08/18 04:16:13;;;;;;;88.40;61.00;;;21.50;99.90;;;;;;5054149;28;20462;-74
2022/08/18 04:18:39;;;;;;;91.05;61.30;;;21.50;99.90;;;;;;5054351;28;20405;-73
2022/08/18 04:21:08;;;;;;;92.25;61.90;;;21.50;99.90;;;;;;5054080;28;20044;-73
2022/08/18 04:23:36;;;;;;;93.50;59.83;;;21.50;99.90;;;;;;5054330;28;20068;-73
2022/08/18 04:26:03;;;;;;;82.85;57.25;;;21.40;99.90;;;;;;5054005;28;20025;-72
2022/08/18 04:28:29;;;;;;;92.95;60.45;;;21.30;99.90;;;;;;5054102;28;20484;-73
2022/08/18 04:30:58;;;;;;;90.10;56.13;;;21.30;99.90;;;;;;5053898;28;20587;-73
2022/08/18 04:33:27;;;;;;;96.30;59.28;;;21.30;99.90;;;;;;5016365;28;20033;-72
2022/08/18 04:35:54;;;;;;;89.47;57.83;;;21.30;99.90;;;;;;5034912;28;20120;-72
2022/08/18 04:38:21;;;;;;;87.00;57.00;;;21.30;99.90;;;;;;5054072;28;20090;-72
2022/08/18 04:40:47;;;;;;;86.93;56.70;;;21.30;99.90;;;;;;5053730;28;20040;-72
2022/08/18 04:43:14;;;;;;;91.28;60.85;;;21.30;99.90;;;;;;5053941;28;20147;-72
2022/08/18 04:45:46;;;;;;;87.05;56.00;;;21.30;99.90;;;;;;5053649;28;20106;-72
2022/08/18 04:48:14;;;;;;;;;;;21.30;99.90;;;;;;5054348;28;20557;-72
2022/08/18 04:50:41;;;;;;;84.57;55.28;;;21.30;99.90;;;;;;5053574;28;19904;-72
2022/08/18 04:55:53;;;;;;;72.45;50.15;;;21.20;99.90;;;;;;5053548;28;20452;-72
2022/08/18 04:58:20;;;;;;;77.07;51.45;;;21.10;99.90;;;;;;5053215;28;20074;-72
2022/08/18 05:00:46;;;;;;;73.70;50.15;;;21.10;99.90;;;;;;5035727;28;20057;-72
2022/08/18 05:03:12;;;;;;;73.70;49.08;;;21.10;99.90;;;;;;5053388;28;20051;-72
2022/08/18 05:05:38;;;;;;;74.35;48.88;;;21.10;99.90;;;;;;5035479;28;20033;-72
2022/08/18 05:08:04;;;;;;;75.95;49.92;;;21.10;99.90;;;;;;5053444;28;20048;-72
2022/08/18 05:10:30;;;;;;;86.97;52.90;;;21.10;99.90;;;;;;5053091;28;20025;-72
2022/08/18 05:12:56;;;;;;;84.70;53.42;;;21.10;99.90;;;;;;5053338;28;20075;-73
2022/08/18 05:15:22;;;;;;;84.68;51.13;;;21.10;99.90;;;;;;5053274;28;20100;-74
2022/08/18 05:17:47;;;;;;;87.97;57.28;;;21.10;99.90;;;;;;5052942;28;20039;-73
2022/08/18 05:20:13;;;;;;;97.65;58.97;;;21.10;99.90;;;;;;5052915;28;20090;-72
2022/08/18 05:22:42;;;;;;;95.00;58.13;;;21.10;99.90;;;;;;5052865;28;20048;-72
2022/08/18 05:25:09;;;;;;;105.45;59.47;;;21.10;99.90;;;;;;5035116;28;20753;-72
2022/08/18 05:27:38;;;;;;;104.13;59.92;;;21.20;99.90;;;;;;5053388;28;20013;-72
2022/08/18 05:30:06;;;;;;;99.60;60.70;;;21.20;99.90;;;;;;5053095;28;20040;-72
2022/08/18 05:32:40;;;;;;;91.32;59.67;;;21.20;99.90;;;;;;5053040;28;20112;-72
2022/08/18 05:35:22;;;;;;;92.18;59.90;;;21.20;99.90;;;;;;5034780;28;20075;-72
2022/08/18 05:38:21;;;;;;;85.47;56.90;;;21.20;99.90;;;;;;5052912;28;20055;-72
2022/08/18 05:41:04;;;;;;;78.82;52.15;;;21.10;99.90;;;;;;5052796;28;20040;-73
2022/08/18 05:43:30;;;;;;;86.50;55.28;;;21.10;99.90;;;;;;5037123;28;20032;-72
2022/08/18 05:45:58;;;;;;;81.60;53.70;;;21.10;99.90;;;;;;5052527;28;20600;-72
2022/08/18 05:48:23;;;;;;;81.18;53.17;;;21.10;99.90;;;;;;5052950;28;20024;-72
2022/08/18 05:50:50;;;;;;;82.75;54.03;;;21.20;99.90;;;;;;5052493;28;20025;-74
2022/08/18 05:56:45;;;;;;;81.35;54.00;;;21.20;99.90;;;;;;5051938;28;20029;-75
2022/08/18 05:58:54;;;;;;;75.15;52.33;;;21.30;99.90;;;;;;5071182;28;20036;-74
2022/08/18 06:01:25;;;;;;;79.38;53.78;;;21.30;99.90;;;;;;5065043;28;20037;-74
2022/08/18 06:04:05;;;;;;;75.10;52.35;;;21.30;99.90;;;;;;5063853;28;20025;-73
2022/08/18 06:06:32;;;;;;;80.00;56.65;;;21.30;99.90;;;;;;5072517;28;20098;-74
2022/08/18 06:09:11;;;;;;;78.93;53.75;;;21.20;99.90;;;;;;5054801;28;20025;-74
2022/08/18 06:11:37;;;;;;;82.45;55.35;;;21.10;99.90;;;;;;5051785;28;20044;-72
2022/08/18 06:14:03;;;;;;;87.38;57.28;;;21.10;99.90;;;;;;5051456;28;20103;-72
2022/08/18 06:16:34;;;;;;;76.10;52.95;;;21.20;99.90;;;;;;5051901;28;20044;-73
2022/08/18 06:19:41;;;;;;;72.53;53.38;;;21.30;99.90;;;;;;5052476;28;20029;-73
2022/08/18 06:22:29;;;;;;;73.68;49.85;;;21.20;99.90;;;;;;5059828;28;20044;-73
2022/08/18 06:25:05;;;;;;;77.15;53.03;;;21.30;99.90;;;;;;5058600;28;20056;-73
2022/08/18 06:27:31;;;;;;;72.07;52.83;;;21.40;99.90;;;;;;5060914;28;20017;-74
2022/08/18 06:30:15;;;;;;;73.95;53.65;;;21.30;99.90;;;;;;5043573;28;20447;-73
2022/08/18 06:33:08;;;;;;;61.83;45.33;;;21.30;99.90;;;;;;5043042;28;20041;-74
2022/08/18 06:35:53;;;;;;;70.05;50.38;;;21.30;99.90;;;;;;5058444;28;20052;-72
2022/08/18 06:38:49;;;;;;;66.70;47.35;;;21.30;99.90;;;;;;5060074;28;20013;-74
2022/08/18 06:41:37;;;;;;;63.83;47.55;;;21.30;99.90;;;;;;5043139;28;20041;-73
2022/08/18 06:44:31;;;;;;;61.72;46.58;;;21.40;99.90;;;;;;5059637;28;20025;-73
2022/08/18 06:47:07;;;;;;;62.58;46.60;;;21.50;99.90;;;;;;5057630;28;20048;-73
2022/08/18 06:49:53;;;;;;;60.40;45.55;;;21.50;99.90;;;;;;5059562;28;20077;-73
2022/08/18 06:52:29;;;;;;;61.67;45.03;;;21.40;99.90;;;;;;5044561;28;20036;-73
2022/08/18 06:54:58;;;;;;;57.58;42.55;;;21.50;99.90;;;;;;5070567;28;20032;-73
2022/08/18 06:57:32;;;;;;;61.05;44.35;;;21.50;99.90;;;;;;5062522;28;20059;-74
2022/08/18 07:00:03;;;;;;;55.70;42.05;;;21.50;99.90;;;;;;5042699;28;20029;-74
2022/08/18 07:03:01;;;;;;;55.28;41.60;;;21.50;99.90;;;;;;5033641;28;20376;-73
2022/08/18 07:05:29;;;;;;;61.10;42.67;;;21.50;99.90;;;;;;5026592;28;20120;-73
2022/08/18 07:08:20;;;;;;;57.72;41.33;;;21.40;99.90;;;;;;5051944;28;20033;-73
2022/08/18 07:10:48;;;;;;;57.88;45.30;;;21.50;99.90;;;;;;5051407;28;20028;-73
2022/08/18 07:13:16;;;;;;;54.38;41.90;;;21.60;99.90;;;;;;5050927;28;20033;-72
2022/08/18 07:15:44;;;;;;;52.22;40.78;;;21.50;99.90;;;;;;5051796;28;20083;-74
2022/08/18 07:18:11;;;;;;;53.15;41.25;;;21.50;99.90;;;;;;5051369;28;20032;-74
2022/08/18 07:20:52;;;;;;;52.08;40.70;;;21.60;99.90;;;;;;5053982;28;20037;-74
2022/08/18 07:23:30;;;;;;;50.00;38.58;;;21.70;99.90;;;;;;5036104;28;20450;-75
2022/08/18 07:26:11;;;;;;;46.95;35.05;;;21.70;99.90;;;;;;5035050;28;20105;-74
2022/08/18 07:28:45;;;;;;;51.63;39.80;;;21.70;99.90;;;;;;5035026;28;20029;-76
2022/08/18 07:31:38;;;;;;;46.45;37.40;;;21.80;99.90;;;;;;5046923;28;20455;-74
2022/08/18 07:34:11;;;;;;;46.53;37.60;;;21.80;99.90;;;;;;5053923;28;20028;-75
2022/08/18 07:37:14;;;;;;;50.97;36.75;;;21.80;99.90;;;;;;5038820;28;20021;-76
2022/08/18 07:40:01;;;;;;;53.35;39.40;;;21.70;99.90;;;;;;5064180;28;20473;-75
2022/08/18 07:42:38;;;;;;;87.32;39.42;;;21.70;99.90;;;;;;5047525;28;20044;-76
2022/08/18 07:45:23;;;;;;;46.95;33.45;;;21.80;99.90;;;;;;5064794;28;20017;-75
2022/08/18 07:47:54;;;;;;;42.03;34.60;;;21.80;99.90;;;;;;5060861;28;20044;-74
2022/08/18 07:50:22;;;;;;;43.70;35.13;;;21.90;99.90;;;;;;5058079;28;20017;-75
2022/08/18 07:52:48;;;;;;;40.42;33.15;;;21.90;99.90;;;;;;5055138;28;20032;-75
2022/08/18 07:55:35;;;;;;;43.08;33.60;;;21.90;99.90;;;;;;5054760;28;20025;-76
2022/08/18 07:58:21;;;;;;;37.60;29.52;;;21.90;99.90;;;;;;5054840;28;20122;-74
2022/08/18 08:01:15;;;;;;;35.78;28.60;;;22.00;99.90;;;;;;5052367;28;20504;-77
2022/08/18 08:04:09;;;;;;;40.30;31.55;;;21.90;99.90;;;;;;5047654;28;20036;-75
2022/08/18 08:06:41;;;;;;;38.22;32.42;;;21.90;99.90;;;;;;5058686;28;20534;-74
2022/08/18 08:09:09;;;;;;;55.72;38.38;;;21.90;99.90;;;;;;5057358;28;20032;-74
2022/08/18 08:11:45;;;;;;;49.47;37.15;;;21.90;99.90;;;;;;5054067;28;20090;-75
2022/08/18 08:14:32;;;;;;;40.72;33.42;;;21.90;99.90;;;;;;5054313;28;20056;-78
2022/08/18 08:17:17;;;;;;;38.30;28.42;;;21.90;99.90;;;;;;5053494;28;20451;-76
2022/08/18 08:20:01;;;;;;;36.28;29.63;;;22.30;99.90;;;;;;5054491;28;20540;-73
2022/08/18 08:22:36;;;;;;;34.17;28.88;;;22.30;99.90;;;;;;5054131;28;20040;-75
2022/08/18 08:25:05;;;;;;;38.97;27.55;;;22.40;99.90;;;;;;5054182;28;20087;-75
2022/08/18 08:27:57;;;;;;;28.10;23.95;;;22.50;99.90;;;;;;5054508;28;20481;-74
2022/08/18 08:30:25;;;;;;;27.17;22.30;;;22.60;99.90;;;;;;5015091;28;20090;-75
2022/08/18 08:33:09;;;;;;;25.50;22.02;;;22.60;99.90;;;;;;5052096;28;20268;-75
2022/08/18 08:35:36;;;;;;;28.60;23.15;;;22.70;99.90;;;;;;5054154;28;20104;-75
2022/08/18 08:38:18;;;;;;;29.45;23.48;;;22.60;99.90;;;;;;5052991;28;20136;-75
2022/08/18 08:41:02;;;;;;;26.13;22.13;;;22.70;99.90;;;;;;5053609;28;20040;-75
2022/08/18 08:43:36;;;;;;;26.92;22.08;;;22.40;99.90;;;;;;5048839;28;20022;-75
2022/08/18 08:46:29;;;;;;;24.50;20.85;;;22.50;99.90;;;;;;5044790;28;20020;-77
2022/08/18 08:49:24;;;;;;;23.30;19.27;;;22.70;99.90;;;;;;5053778;28;20028;-74
2022/08/18 08:52:03;;;;;;;23.67;16.88;;;22.60;99.90;;;;;;5042583;28;20040;-78
2022/08/18 08:54:37;;;;;;;22.02;18.73;;;22.90;99.90;;;;;;5053280;28;20029;-78
2022/08/18 08:57:04;;;;;;;21.77;15.93;;;23.20;99.90;;;;;;5053413;28;20032;-74
2022/08/18 08:59:30;;;;;;;18.98;15.18;;;23.50;99.90;;;;;;5052954;28;20100;-78
2022/08/18 09:02:03;;;;;;;18.10;15.82;;;23.60;99.90;;;;;;5052777;28;20127;-76
2022/08/18 09:04:58;;;;;;;18.40;16.50;;;23.50;99.90;;;;;;5052782;28;20503;-75
2022/08/18 09:07:39;;;;;;;18.00;16.20;;;23.50;99.90;;;;;;5053539;28;20430;-77
2022/08/18 09:10:29;;;;;;;22.25;19.27;;;23.50;99.90;;;;;;5053257;28;20075;-75
2022/08/18 09:13:01;;;;;;;19.40;16.85;;;23.50;99.90;;;;;;5028631;28;20036;-76
2022/08/18 09:15:51;;;;;;;19.07;16.03;;;23.50;99.90;;;;;;5053536;28;20029;-76
2022/08/18 09:18:28;;;;;;;21.55;16.30;;;23.60;99.90;;;;;;5052010;28;20040;-74
2022/08/18 09:21:20;;;;;;;22.83;17.63;;;23.80;99.90;;;;;;5053331;28;20068;-75
2022/08/18 09:23:50;;;;;;;18.85;16.83;;;23.80;99.90;;;;;;5053866;28;20021;-74
2022/08/18 09:26:39;;;;;;;18.23;15.95;;;23.70;99.90;;;;;;5053297;28;20039;-73
2022/08/18 09:29:22;;;;;;;17.60;15.02;;;23.80;99.90;;;;;;5046076;28;20044;-72
2022/08/18 09:32:07;;;;;;;17.95;15.43;;;24.10;99.90;;;;;;5054154;28;20029;-72
2022/08/18 09:34:57;;;;;;;18.75;16.40;;;24.10;99.90;;;;;;5053739;28;20028;-73
2022/08/18 09:37:28;;;;;;;20.45;18.35;;;24.20;99.90;;;;;;5036575;28;20033;-84
2022/08/18 09:43:06;;;;;;;18.83;16.98;;;23.80;99.90;;;;;;5055491;28;20036;-76
2022/08/18 09:45:32;;;;;;;20.85;15.00;;;23.80;99.90;;;;;;5032853;28;20025;-73
2022/08/18 09:48:42;;;;;;;19.35;14.90;;;23.70;99.90;;;;;;5033327;28;20025;-74
2022/08/18 09:51:14;;;;;;;15.52;13.93;;;23.60;99.90;;;;;;5033326;28;20022;-73
2022/08/18 09:53:45;;;;;;;12.93;11.63;;;23.50;99.90;;;;;;5032975;28;20485;-73
2022/08/18 09:56:13;;;;;;;15.40;12.63;;;23.70;99.90;;;;;;5043982;28;20346;-72
2022/08/18 09:59:00;;;;;;;12.73;10.82;;;24.00;99.90;;;;;;5053045;28;20028;-73
2022/08/18 10:01:30;;;;;;;15.75;13.20;;;24.00;99.90;;;;;;5052613;28;20465;-72
2022/08/18 10:04:13;;;;;;;17.85;12.85;;;23.90;99.90;;;;;;5052124;28;20020;-73
2022/08/18 10:06:45;;;;;;;15.13;13.63;;;23.90;99.90;;;;;;5052983;28;20021;-73
2022/08/18 10:09:34;;;;;;;14.48;13.13;;;24.00;99.90;;;;;;5053031;28;20021;-73
2022/08/18 10:12:42;;;;;;;14.98;13.32;;;24.10;99.90;;;;;;5043279;28;20037;-73
2022/08/18 10:15:13;;;;;;;14.38;12.57;;;24.20;99.90;;;;;;5023059;28;20064;-72
2022/08/18 10:17:57;;;;;;;16.70;12.82;;;24.50;99.90;;;;;;5052443;28;20116;-73
2022/08/18 10:20:40;;;;;;;12.48;11.18;;;24.60;99.90;;;;;;5052786;28;20095;-72
2022/08/18 10:23:07;;;;;;;14.07;11.00;;;24.60;99.90;;;;;;5034668;28;20416;-73
2022/08/18 10:25:38;;;;;;;12.00;10.77;;;24.50;99.90;;;;;;5052841;28;20017;-73
2022/08/18 10:28:08;;;;;;;12.15;11.02;;;24.70;99.90;;;;;;5052284;28;20116;-72
2022/08/18 10:30:34;;;;;;;13.15;11.65;;;25.00;99.90;;;;;;5052062;28;20078;-72
2022/08/18 10:33:10;;;;;;;12.77;11.57;;;24.90;99.90;;;;;;5052151;28;20025;-73
2022/08/18 10:35:36;;;;;;;13.10;11.88;;;25.00;99.90;;;;;;5034544;28;20025;-73
2022/08/18 10:38:16;;;;;;;12.98;11.52;;;25.10;99.90;;;;;;5052862;28;20082;-73
2022/08/18 10:40:52;;;;;;;12.20;10.90;;;25.10;99.90;;;;;;5052465;28;20029;-72
2022/08/18 10:43:29;;;;;;;11.75;10.63;;;25.00;99.90;;;;;;5052284;28;20021;-72
2022/08/18 10:45:56;;;;;;;13.07;10.80;;;24.80;99.90;;;;;;5052379;28;20028;-73
2022/08/18 10:48:29;;;;;;;9.13;8.23;;;24.80;99.90;;;;;;5051744;28;20021;-73
2022/08/18 10:51:11;;;;;;;10.88;9.23;;;25.00;99.90;;;;;;5052307;28;20029;-73
2022/08/18 10:54:17;;;;;;;12.60;10.85;;;25.20;99.90;;;;;;5039683;28;20029;-72
2022/08/18 10:56:48;;;;;;;12.02;10.85;;;25.20;99.90;;;;;;5015881;28;20040;-72
2022/08/18 10:59:29;;;;;;;10.43;8.97;;;25.70;99.90;;;;;;5059772;28;20471;-72
2022/08/18 11:02:14;;;;;;;10.88;9.55;;;25.80;99.90;;;;;;5068217;28;20182;-72
2022/08/18 11:04:46;;;;;;;10.25;9.15;;;25.90;99.90;;;;;;5056240;28;20120;-73
2022/08/18 11:07:18;;;;;;;8.23;7.50;;;26.10;99.90;;;;;;5055490;28;20090;-73
2022/08/18 11:09:48;;;;;;;9.82;8.85;;;26.20;99.90;;;;;;5056193;28;20029;-72
2022/08/18 11:12:33;;;;;;;8.38;7.63;;;26.20;99.90;;;;;;5055717;28;20480;-72
2022/08/18 11:15:27;;;;;;;9.18;8.35;;;25.80;99.90;;;;;;5037836;28;20025;-72
2022/08/18 11:18:16;;;;;;;8.63;7.82;;;26.20;99.90;;;;;;5055256;28;20028;-73
2022/08/18 11:20:42;;;;;;;7.90;7.15;;;26.30;99.90;;;;;;5055800;28;20037;-74
2022/08/18 11:23:15;;;;;;;9.60;7.47;;;26.60;99.90;;;;;;5061590;28;20014;-73
2022/08/18 11:25:43;;;;;;;8.98;8.20;;;26.90;99.90;;;;;;5063977;28;20082;-73
2022/08/18 11:28:20;;;;;;;8.18;7.47;;;26.70;99.90;;;;;;5065910;28;20017;-72
2022/08/18 11:30:54;;;;;;;10.70;8.73;;;26.50;99.90;;;;;;5048721;28;20036;-72
2022/08/18 11:33:21;;;;;;;8.73;7.82;;;26.40;99.90;;;;;;5045041;28;20024;-73
2022/08/18 11:35:56;;;;;;;8.10;7.40;;;26.50;99.90;;;;;;5064141;28;20017;-74
2022/08/18 11:38:22;;;;;;;8.25;7.55;;;26.80;99.90;;;;;;5061510;28;20028;-73
2022/08/18 11:41:10;;;;;;;8.77;7.90;;;27.00;99.90;;;;;;5068576;28;20036;-73
2022/08/18 11:43:36;;;;;;;10.57;8.90;;;27.30;99.90;;;;;;5032587;28;20041;-76
2022/08/18 11:46:23;;;;;;;13.75;8.68;;;27.50;99.90;;;;;;5053139;28;20029;-71
2022/08/18 11:48:49;;;;;;;9.70;8.80;;;27.40;99.90;;;;;;5054935;28;20052;-73
2022/08/18 11:51:16;;;;;;;8.88;7.97;;;27.20;99.90;;;;;;5054448;28;20539;-73
2022/08/18 11:53:48;;;;;;;10.32;8.15;;;26.90;99.90;;;;;;5054587;28;20477;-71
2022/08/18 11:56:13;;;;;;;9.48;8.55;;;27.20;99.90;;;;;;5055020;28;20029;-72
2022/08/18 11:59:00;;;;;;;11.35;8.30;;;27.30;99.90;;;;;;5055435;28;20029;-75
2022/08/18 12:01:32;;;;;;;11.70;7.07;;;27.00;99.90;;;;;;5054721;28;20116;-73
2022/08/18 12:04:12;;;;;;;9.17;8.20;;;26.80;99.90;;;;;;5055231;28;20079;-71
2022/08/18 12:06:48;;;;;;;10.30;9.30;;;27.00;99.90;;;;;;5054920;28;20032;-71
2022/08/18 12:09:18;;;;;;;9.80;8.85;;;27.00;99.90;;;;;;5054097;28;20115;-72
2022/08/18 12:11:52;;;;;;;10.98;9.88;;;26.70;99.90;;;;;;5054342;28;20032;-72
2022/08/18 12:14:22;;;;;;;9.35;8.45;;;26.50;99.90;;;;;;5054484;28;20106;-74
2022/08/18 12:16:48;;;;;;;9.70;8.88;;;26.40;99.90;;;;;;5036097;28;20031;-73
2022/08/18 12:19:15;;;;;;;9.93;8.93;;;26.30;99.90;;;;;;5061954;28;20042;-73
2022/08/18 12:21:49;;;;;;;9.43;8.13;;;26.30;99.90;;;;;;5074537;28;20083;-71
2022/08/18 12:24:30;;;;;;;12.65;8.75;;;26.10;99.90;;;;;;5074386;28;20016;-72
2022/08/18 12:26:57;;;;;;;10.15;9.25;;;26.20;99.90;;;;;;5075054;28;20483;-73
2022/08/18 12:29:24;;;;;;;12.77;9.60;;;26.20;99.90;;;;;;5074484;28;20464;-73
2022/08/18 12:31:52;;;;;;;9.70;8.75;;;26.30;99.90;;;;;;5063675;28;20059;-72
2022/08/18 12:34:22;;;;;;;11.25;9.18;;;26.20;99.90;;;;;;5054178;28;20020;-72
2022/08/18 12:36:49;;;;;;;8.40;7.65;;;26.20;99.90;;;;;;5036598;28;20013;-73
2022/08/18 12:39:15;;;;;;;10.27;8.93;;;26.10;99.90;;;;;;5054073;28;20110;-73
2022/08/18 12:41:41;;;;;;;10.98;9.68;;;26.00;99.90;;;;;;5054472;28;20441;-73
2022/08/18 12:44:06;;;;;;;10.77;9.73;;;26.20;99.90;;;;;;5054316;28;20032;-78
2022/08/18 12:46:32;;;;;;;9.55;8.77;;;26.20;99.90;;;;;;5036116;28;20112;-76
2022/08/18 12:48:58;;;;;;;10.27;9.27;;;26.20;99.90;;;;;;5053548;28;20104;-74
2022/08/18 12:51:23;;;;;;;10.75;9.75;;;26.30;99.90;;;;;;5035525;28;20392;-74
2022/08/18 12:53:49;;;;;;;10.43;9.48;;;26.30;99.90;;;;;;5053695;28;20048;-76
2022/08/18 12:56:30;;;;;;;9.60;8.80;;;26.30;99.90;;;;;;5053758;28;20525;-74
2022/08/18 12:58:59;;;;;;;9.85;8.82;;;26.20;99.90;;;;;;5035818;28;20037;-74
2022/08/18 13:01:24;;;;;;;12.50;9.50;;;26.20;99.90;;;;;;5053940;28;20527;-75
2022/08/18 13:03:54;;;;;;;9.63;8.73;;;26.00;99.90;;;;;;5053474;28;20032;-78
2022/08/18 13:06:22;;;;;;;9.90;8.95;;;25.90;99.90;;;;;;5035104;28;20025;-74
2022/08/18 13:08:49;;;;;;;10.98;9.90;;;25.90;99.90;;;;;;5053496;28;20027;-74
2022/08/18 13:11:16;;;;;;;11.43;10.25;;;25.90;99.90;;;;;;5053584;28;20033;-73
2022/08/18 13:13:43;;;;;;;11.20;10.10;;;25.90;99.90;;;;;;5053853;28;20029;-73